createdAt,value
2023-08-14T00:01:27.812Z,99.90
2023-08-14T00:03:55.841Z,99.90
2023-08-14T00:06:23.866Z,99.90
2023-08-14T00:08:53.413Z,99.90
2023-08-14T00:11:21.464Z,99.90
2023-08-14T00:13:54.068Z,99.90
2023-08-14T00:16:22.267Z,99.90
2023-08-14T00:18:50.599Z,99.90
2023-08-14T00:21:18.634Z,99.90
2023-08-14T00:23:47.072Z,99.90
2023-08-14T00:26:16.442Z,99.90
2023-08-14T00:28:44.454Z,99.90
2023-08-14T00:31:12.821Z,99.90
2023-08-14T00:33:40.927Z,99.90
2023-08-14T00:36:08.957Z,99.90
2023-08-14T00:38:36.941Z,99.90
2023-08-14T00:41:05.017Z,99.90
2023-08-14T00:43:35.100Z,99.90
2023-08-14T00:46:03.415Z,99.90
2023-08-14T00:48:32.367Z,99.90
2023-08-14T00:51:01.201Z,99.90
2023-08-14T00:53:31.424Z,99.90
2023-08-14T00:56:01.700Z,99.90
2023-08-14T00:58:30.227Z,99.90
2023-08-14T01:01:00.606Z,99.90
2023-08-14T01:03:28.864Z,99.90
2023-08-14T01:05:57.550Z,99.90
2023-08-14T01:08:25.889Z,99.90
2023-08-14T01:11:01.796Z,99.90
2023-08-14T01:13:38.763Z,99.90
2023-08-14T01:16:12.320Z,99.90
2023-08-14T01:18:42.776Z,99.90
2023-08-14T01:21:26.969Z,99.90
2023-08-14T01:24:09.069Z,99.90
2023-08-14T01:26:38.850Z,99.90
2023-08-14T01:29:07.010Z,99.90
2023-08-14T01:31:35.007Z,99.90
2023-08-14T01:34:03.012Z,99.90
2023-08-14T01:36:38.597Z,99.90
2023-08-14T01:39:09.907Z,99.90
2023-08-14T01:41:45.448Z,99.90
2023-08-14T01:44:17.007Z,99.90
2023-08-14T01:46:47.154Z,99.90
2023-08-14T01:49:18.650Z,99.90
2023-08-14T01:51:49.174Z,99.90
2023-08-14T01:54:17.180Z,99.90
2023-08-14T01:56:46.676Z,99.90
2023-08-14T01:59:14.672Z,99.90
2023-08-14T02:01:42.685Z,99.90
2023-08-14T02:04:10.800Z,99.90
2023-08-14T02:06:38.828Z,99.90
2023-08-14T02:09:07.005Z,99.90
2023-08-14T02:11:35.993Z,99.90
2023-08-14T02:14:05.703Z,99.90
2023-08-14T02:16:34.025Z,99.90
2023-08-14T02:19:01.989Z,99.90
2023-08-14T02:21:29.959Z,99.90
2023-08-14T02:23:57.964Z,99.90
2023-08-14T02:26:25.939Z,99.90
2023-08-14T02:28:55.148Z,99.90
2023-08-14T02:31:24.624Z,99.90
2023-08-14T02:33:52.626Z,99.90
2023-08-14T02:36:20.612Z,99.90
2023-08-14T02:38:48.572Z,99.90
2023-08-14T02:41:16.622Z,99.90
2023-08-14T02:43:44.701Z,99.90
2023-08-14T02:46:12.778Z,99.90
2023-08-14T02:48:42.831Z,99.90
2023-08-14T02:51:11.007Z,99.90
2023-08-14T02:53:39.064Z,99.90
2023-08-14T02:56:07.105Z,99.90
2023-08-14T02:58:36.913Z,99.90
2023-08-14T03:01:06.031Z,99.90
2023-08-14T03:03:34.150Z,99.90
2023-08-14T03:06:04.037Z,99.90
2023-08-14T03:08:32.016Z,99.90
2023-08-14T03:11:00.044Z,99.90
2023-08-14T03:13:28.140Z,99.90
2023-08-14T03:15:56.106Z,99.90
2023-08-14T03:18:24.081Z,99.90
2023-08-14T03:20:52.066Z,99.90
2023-08-14T03:23:21.449Z,99.90
2023-08-14T03:25:49.815Z,99.90
2023-08-14T03:28:17.819Z,99.90
2023-08-14T03:30:46.091Z,99.90
2023-08-14T03:33:14.122Z,99.90
2023-08-14T03:35:42.103Z,99.90
2023-08-14T03:38:10.068Z,99.90
2023-08-14T03:40:39.443Z,99.90
2023-08-14T03:43:07.450Z,99.90
2023-08-14T03:45:35.500Z,99.90
2023-08-14T03:48:04.590Z,99.90
2023-08-14T03:50:32.613Z,99.90
2023-08-14T03:53:00.627Z,99.90
2023-08-14T03:55:28.912Z,99.90
2023-08-14T03:57:58.825Z,99.90
2023-08-14T04:00:26.923Z,99.90
2023-08-14T04:02:55.129Z,99.90
2023-08-14T04:05:23.176Z,99.90
2023-08-14T04:07:51.194Z,99.90
2023-08-14T04:10:19.242Z,99.90
2023-08-14T04:12:47.182Z,99.90
2023-08-14T04:15:17.735Z,99.90
2023-08-14T04:17:45.959Z,99.90
2023-08-14T04:20:14.288Z,99.90
2023-08-14T04:22:42.274Z,99.90
2023-08-14T04:25:10.752Z,99.90
2023-08-14T04:27:39.515Z,99.90
2023-08-14T04:30:08.774Z,99.90
2023-08-14T04:32:38.258Z,99.90
2023-08-14T04:35:07.405Z,99.90
2023-08-14T04:37:35.392Z,99.90
2023-08-14T04:40:03.412Z,99.90
2023-08-14T04:42:31.400Z,99.90
2023-08-14T04:44:59.426Z,99.90
2023-08-14T04:47:27.427Z,99.90
2023-08-14T04:49:57.161Z,99.90
2023-08-14T04:52:25.195Z,99.90
2023-08-14T04:54:53.167Z,99.90
2023-08-14T04:57:21.134Z,99.90
2023-08-14T04:59:49.159Z,99.90
2023-08-14T05:02:17.396Z,99.90
2023-08-14T05:04:45.607Z,99.90
2023-08-14T05:07:15.066Z,99.90
2023-08-14T05:09:43.214Z,99.90
2023-08-14T05:12:11.390Z,99.90
2023-08-14T05:14:39.370Z,99.90
2023-08-14T05:17:07.369Z,99.90
2023-08-14T05:19:35.374Z,99.90
2023-08-14T05:22:03.374Z,99.90
2023-08-14T05:24:32.951Z,99.90
2023-08-14T05:27:00.947Z,99.90
2023-08-14T05:29:28.948Z,99.90
2023-08-14T05:31:56.940Z,99.90
2023-08-14T05:34:25.022Z,99.90
2023-08-14T05:36:53.145Z,99.90
2023-08-14T05:39:21.135Z,99.90
2023-08-14T05:41:50.765Z,99.90
2023-08-14T05:44:19.463Z,99.90
2023-08-14T05:46:49.526Z,99.90
2023-08-14T05:49:18.143Z,99.90
2023-08-14T05:51:46.530Z,99.90
2023-08-14T05:54:14.500Z,99.90
2023-08-14T05:56:42.512Z,99.90
2023-08-14T05:59:11.835Z,99.90
2023-08-14T06:01:40.722Z,99.90
2023-08-14T06:04:08.992Z,99.90
2023-08-14T06:06:37.073Z,99.90
2023-08-14T06:09:05.333Z,99.90
2023-08-14T06:11:33.332Z,99.90
2023-08-14T06:14:01.403Z,99.90
2023-08-14T06:16:30.812Z,99.90
2023-08-14T06:18:58.893Z,99.90
2023-08-14T06:21:26.890Z,99.90
2023-08-14T06:23:54.961Z,99.90
2023-08-14T06:26:23.525Z,99.90
2023-08-14T06:28:51.509Z,99.90
2023-08-14T06:31:19.743Z,99.20
2023-08-14T06:33:51.167Z,99.60
2023-08-14T06:36:19.937Z,99.50
2023-08-14T06:38:47.913Z,98.60
2023-08-14T06:41:15.890Z,98.20
2023-08-14T06:43:43.872Z,97.30
2023-08-14T06:46:11.901Z,97.30
2023-08-14T06:48:39.929Z,97.20
2023-08-14T06:51:09.271Z,96.10
2023-08-14T06:53:37.279Z,95.90
2023-08-14T06:56:06.142Z,95.20
2023-08-14T06:58:34.280Z,94.00
2023-08-14T07:01:02.364Z,93.70
2023-08-14T07:03:30.479Z,92.60
2023-08-14T07:05:58.532Z,91.90
2023-08-14T07:08:27.923Z,91.50
2023-08-14T07:10:56.166Z,90.80
2023-08-14T07:13:24.737Z,90.90
2023-08-14T07:15:52.717Z,90.40
2023-08-14T07:18:21.131Z,90.70
2023-08-14T07:20:49.454Z,91.40
2023-08-14T07:23:17.639Z,91.60
2023-08-14T07:25:47.270Z,92.00
2023-08-14T07:28:15.357Z,90.80
2023-08-14T07:30:43.471Z,91.10
2023-08-14T07:33:14.731Z,90.90
2023-08-14T07:35:42.861Z,90.10
2023-08-14T07:38:11.126Z,88.10
2023-08-14T07:40:39.129Z,87.30
2023-08-14T07:43:09.470Z,87.00
2023-08-14T07:45:37.641Z,87.60
2023-08-14T07:48:06.426Z,87.60
2023-08-14T07:50:34.591Z,88.00
2023-08-14T07:53:02.712Z,87.30
2023-08-14T07:55:30.782Z,86.40
2023-08-14T07:57:58.850Z,86.10
2023-08-14T08:00:28.567Z,85.90
2023-08-14T08:02:56.653Z,85.40
2023-08-14T08:05:24.720Z,86.90
2023-08-14T08:07:53.052Z,86.00
2023-08-14T08:10:21.159Z,86.40
2023-08-14T08:12:51.669Z,86.60
2023-08-14T08:15:19.852Z,86.40
2023-08-14T08:17:49.243Z,86.90
2023-08-14T08:20:17.538Z,87.60
2023-08-14T08:22:45.718Z,87.50
2023-08-14T08:25:13.768Z,86.90
2023-08-14T08:27:41.755Z,86.30
2023-08-14T08:30:10.762Z,86.10
2023-08-14T08:32:40.169Z,85.70
2023-08-14T08:35:10.691Z,86.90
2023-08-14T08:37:38.678Z,86.20
2023-08-14T08:40:08.136Z,85.80
2023-08-14T08:42:36.203Z,85.40
2023-08-14T08:45:06.998Z,84.90
2023-08-14T08:47:39.796Z,81.70
2023-08-14T08:50:10.821Z,77.60
2023-08-14T08:52:40.013Z,74.30
2023-08-14T08:55:10.118Z,69.50
2023-08-14T08:57:39.875Z,71.20
2023-08-14T09:00:09.285Z,73.00
2023-08-14T09:02:37.420Z,74.70
2023-08-14T09:05:06.188Z,75.80
2023-08-14T09:07:36.228Z,74.10
2023-08-14T09:10:04.482Z,75.10
2023-08-14T09:12:32.816Z,73.50
2023-08-14T09:15:06.636Z,72.50
2023-08-14T09:17:35.479Z,72.20
2023-08-14T09:20:08.800Z,70.10
2023-08-14T09:22:45.051Z,69.50
2023-08-14T09:25:14.236Z,70.70
2023-08-14T09:27:43.595Z,71.40
2023-08-14T09:30:14.385Z,72.00
2023-08-14T09:32:42.442Z,72.60
2023-08-14T09:35:10.685Z,72.50
2023-08-14T09:37:41.660Z,70.60
2023-08-14T09:40:14.330Z,71.40
2023-08-14T09:42:42.530Z,70.40
2023-08-14T09:45:11.095Z,67.40
2023-08-14T09:47:39.760Z,64.50
2023-08-14T09:50:08.976Z,60.80
2023-08-14T09:52:37.078Z,57.70
2023-08-14T09:55:11.541Z,54.30
2023-08-14T09:57:41.350Z,51.90
2023-08-14T10:00:12.262Z,51.40
2023-08-14T10:02:41.396Z,49.00
2023-08-14T10:05:11.642Z,45.90
2023-08-14T10:07:41.933Z,45.50
2023-08-14T10:10:12.299Z,42.50
2023-08-14T10:12:48.362Z,43.40
2023-08-14T10:15:22.357Z,41.60
2023-08-14T10:17:55.257Z,42.00
2023-08-14T10:20:25.706Z,40.80
2023-08-14T10:22:54.696Z,37.00
2023-08-14T10:25:24.294Z,37.50
2023-08-14T10:27:54.725Z,36.40
2023-08-14T10:30:24.905Z,37.60
2023-08-14T10:32:53.814Z,38.40
2023-08-14T10:35:22.621Z,39.90
2023-08-14T10:38:04.515Z,41.80
2023-08-14T10:40:38.043Z,42.90
2023-08-14T10:43:08.436Z,45.70
2023-08-14T10:45:36.625Z,48.50
2023-08-14T10:48:11.356Z,49.00
2023-08-14T10:50:40.157Z,51.20
2023-08-14T10:53:08.213Z,51.30
2023-08-14T10:55:39.067Z,52.80
2023-08-14T10:58:39.487Z,53.40
2023-08-14T11:01:09.956Z,53.50
2023-08-14T11:03:58.021Z,53.90
2023-08-14T11:06:26.751Z,54.10
2023-08-14T11:09:00.810Z,54.20
2023-08-14T11:11:29.410Z,54.00
2023-08-14T11:13:59.120Z,54.30
2023-08-14T11:16:27.549Z,54.90
2023-08-14T11:18:58.889Z,55.70
2023-08-14T11:21:31.445Z,56.20
2023-08-14T11:24:00.942Z,56.50
2023-08-14T11:26:31.570Z,56.10
2023-08-14T11:29:00.946Z,55.70
2023-08-14T11:31:34.537Z,56.00
2023-08-14T11:34:07.485Z,55.90
2023-08-14T11:36:35.630Z,56.00
2023-08-14T11:39:04.027Z,55.40
2023-08-14T11:41:35.544Z,56.10
2023-08-14T11:44:05.462Z,55.50
2023-08-14T11:46:33.613Z,55.50
2023-08-14T11:49:01.961Z,55.50
2023-08-14T11:51:31.353Z,55.50
2023-08-14T11:54:00.271Z,54.90
2023-08-14T11:56:28.384Z,55.20
2023-08-14T11:59:07.037Z,54.50
2023-08-14T12:01:39.934Z,54.80
2023-08-14T12:04:08.474Z,55.30
2023-08-14T12:06:37.302Z,54.60
2023-08-14T12:09:08.939Z,54.60
2023-08-14T12:11:39.878Z,55.20
2023-08-14T12:14:09.013Z,55.10
2023-08-14T12:16:41.702Z,55.10
2023-08-14T12:19:11.335Z,54.60
2023-08-14T12:21:40.112Z,54.40
2023-08-14T12:24:08.624Z,54.20
2023-08-14T12:26:44.682Z,53.00
2023-08-14T12:29:15.596Z,53.60
2023-08-14T12:31:45.081Z,53.00
2023-08-14T12:34:13.716Z,53.30
2023-08-14T12:36:41.805Z,52.20
2023-08-14T12:39:09.763Z,52.90
2023-08-14T12:41:38.073Z,53.40
2023-08-14T12:44:06.981Z,52.60
2023-08-14T12:46:35.036Z,53.40
2023-08-14T12:49:05.638Z,53.10
2023-08-14T12:51:34.927Z,54.10
2023-08-14T12:54:02.988Z,53.00
2023-08-14T12:56:31.732Z,53.70
2023-08-14T12:58:59.769Z,53.40
2023-08-14T13:01:27.857Z,53.40
2023-08-14T13:03:58.803Z,53.30
2023-08-14T13:06:30.963Z,53.30
2023-08-14T13:08:59.088Z,53.00
2023-08-14T13:11:28.267Z,53.10
2023-08-14T13:13:56.304Z,52.50
2023-08-14T13:16:24.531Z,52.90
2023-08-14T13:18:52.536Z,51.40
2023-08-14T13:21:20.526Z,51.30
2023-08-14T13:23:50.813Z,50.80
2023-08-14T13:28:52.078Z,50.60
2023-08-14T13:31:20.102Z,50.60
2023-08-14T13:33:48.107Z,51.00
2023-08-14T13:36:16.124Z,51.40
2023-08-14T13:38:44.069Z,51.10
2023-08-14T13:41:13.410Z,51.70
2023-08-14T13:43:41.387Z,51.80
2023-08-14T13:46:09.376Z,51.10
2023-08-14T13:48:37.529Z,51.30
2023-08-14T13:51:05.710Z,51.20
2023-08-14T13:53:34.242Z,51.30
2023-08-14T13:56:02.293Z,51.10
2023-08-14T13:58:31.612Z,51.30
2023-08-14T14:01:02.859Z,51.10
2023-08-14T14:03:31.335Z,50.30
2023-08-14T14:05:59.479Z,50.30
2023-08-14T14:08:27.602Z,50.90
2023-08-14T14:10:55.803Z,51.60
2023-08-14T14:13:23.890Z,51.40
2023-08-14T14:15:53.267Z,52.00
2023-08-14T14:18:21.365Z,51.70
2023-08-14T14:20:50.326Z,52.10
2023-08-14T14:23:18.371Z,52.40
2023-08-14T14:25:46.377Z,52.70
2023-08-14T14:28:15.610Z,51.70
2023-08-14T14:30:43.607Z,51.40
2023-08-14T14:33:12.994Z,51.30
2023-08-14T14:35:40.981Z,51.20
2023-08-14T14:38:09.010Z,49.80
2023-08-14T14:40:36.964Z,50.10
2023-08-14T14:43:05.374Z,50.70
2023-08-14T14:45:35.317Z,49.50
2023-08-14T14:48:04.165Z,50.10
2023-08-14T14:50:33.723Z,50.40
2023-08-14T14:53:01.696Z,50.80
2023-08-14T14:55:32.546Z,51.00
2023-08-14T14:58:00.564Z,50.90
2023-08-14T15:00:28.868Z,51.40
2023-08-14T15:02:56.994Z,52.20
2023-08-14T15:05:28.815Z,51.90
2023-08-14T15:07:58.856Z,52.60
2023-08-14T15:10:27.125Z,52.50
2023-08-14T15:12:55.722Z,52.70
2023-08-14T15:15:23.996Z,52.90
2023-08-14T15:17:52.038Z,53.10
2023-08-14T15:20:20.213Z,53.60
2023-08-14T15:22:48.203Z,53.60
2023-08-14T15:25:17.796Z,54.00
2023-08-14T15:27:45.969Z,54.40
2023-08-14T15:30:15.506Z,54.40
2023-08-14T15:32:43.551Z,54.20
2023-08-14T15:35:11.760Z,54.60
2023-08-14T15:37:39.740Z,55.00
2023-08-14T15:40:09.267Z,55.20
2023-08-14T15:42:38.650Z,55.40
2023-08-14T15:45:08.990Z,55.70
2023-08-14T15:47:38.337Z,56.10
2023-08-14T15:50:07.133Z,56.10
2023-08-14T15:52:35.217Z,56.60
2023-08-14T15:55:04.460Z,56.70
2023-08-14T15:57:32.461Z,57.00
2023-08-14T16:00:07.168Z,57.50
2023-08-14T16:02:35.356Z,57.90
2023-08-14T16:05:04.119Z,58.20
2023-08-14T16:07:32.121Z,58.40
2023-08-14T16:10:00.147Z,58.10
2023-08-14T16:12:28.159Z,58.40
2023-08-14T16:14:57.535Z,58.50
2023-08-14T16:17:28.851Z,58.90
2023-08-14T16:19:57.431Z,58.10
2023-08-14T16:22:25.409Z,58.10
2023-08-14T16:24:53.432Z,58.40
2023-08-14T16:27:21.669Z,58.50
2023-08-14T16:29:49.900Z,59.00
2023-08-14T16:32:17.864Z,59.50
2023-08-14T16:34:48.867Z,59.90
2023-08-14T16:37:19.076Z,60.20
2023-08-14T16:39:47.389Z,60.40
2023-08-14T16:42:15.397Z,60.60
2023-08-14T16:44:43.909Z,60.60
2023-08-14T16:47:11.891Z,60.70
2023-08-14T16:49:40.199Z,60.90
2023-08-14T16:52:09.796Z,61.00
2023-08-14T16:54:37.788Z,61.00
2023-08-14T16:57:06.926Z,61.30
2023-08-14T16:59:34.877Z,61.50
2023-08-14T17:02:02.949Z,61.60
2023-08-14T17:04:31.042Z,61.90
2023-08-14T17:06:59.033Z,62.10
2023-08-14T17:09:28.350Z,61.90
2023-08-14T17:11:56.357Z,62.50
2023-08-14T17:14:26.378Z,62.80
2023-08-14T17:16:55.171Z,63.10
2023-08-14T17:19:25.475Z,63.20
2023-08-14T17:21:53.783Z,64.10
2023-08-14T17:24:21.777Z,64.20
2023-08-14T17:26:51.086Z,64.50
2023-08-14T17:29:19.206Z,65.20
2023-08-14T17:31:48.167Z,65.70
2023-08-14T17:34:16.225Z,65.50
2023-08-14T17:36:44.197Z,66.00
2023-08-14T17:39:12.362Z,66.00
2023-08-14T17:41:40.380Z,66.20
2023-08-14T17:44:09.727Z,66.40
2023-08-14T17:46:37.999Z,66.90
2023-08-14T17:49:06.052Z,67.00
2023-08-14T17:51:34.038Z,67.10
2023-08-14T17:54:02.099Z,67.30
2023-08-14T17:56:30.089Z,67.60
2023-08-14T17:58:58.067Z,68.00
2023-08-14T18:01:27.672Z,68.60
2023-08-14T18:03:57.249Z,69.10
2023-08-14T18:06:25.672Z,69.10
2023-08-14T18:08:53.636Z,69.50
2023-08-14T18:11:21.837Z,69.50
2023-08-14T18:13:49.911Z,70.10
2023-08-14T18:16:18.006Z,70.80
2023-08-14T18:18:47.393Z,71.00
2023-08-14T18:21:23.991Z,71.60
2023-08-14T18:23:55.952Z,71.60
2023-08-14T18:26:23.933Z,72.50
2023-08-14T18:28:52.237Z,71.90
2023-08-14T18:31:20.250Z,73.10
2023-08-14T18:33:49.555Z,75.50
2023-08-14T18:36:17.535Z,80.90
2023-08-14T18:38:45.726Z,80.80
2023-08-14T18:41:13.787Z,83.70
2023-08-14T18:43:41.749Z,83.90
2023-08-14T18:46:09.929Z,83.60
2023-08-14T18:48:37.957Z,84.90
2023-08-14T18:51:07.385Z,85.10
2023-08-14T18:53:36.176Z,85.50
2023-08-14T18:56:04.225Z,85.10
2023-08-14T18:58:32.320Z,86.40
2023-08-14T19:01:00.295Z,84.80
2023-08-14T19:03:30.156Z,83.30
2023-08-14T19:05:59.120Z,82.30
2023-08-14T19:08:28.832Z,83.40
2023-08-14T19:10:56.793Z,83.40
2023-08-14T19:13:24.864Z,83.30
2023-08-14T19:15:53.252Z,83.40
2023-08-14T19:18:22.066Z,83.30
2023-08-14T19:20:51.353Z,83.00
2023-08-14T19:23:19.384Z,82.50
2023-08-14T19:25:48.724Z,82.10
2023-08-14T19:28:22.022Z,81.70
2023-08-14T19:30:50.936Z,81.50
2023-08-14T19:33:19.041Z,81.30
2023-08-14T19:35:47.159Z,81.10
2023-08-14T19:38:15.223Z,81.40
2023-08-14T19:40:43.293Z,81.30
2023-08-14T19:43:12.692Z,81.40
2023-08-14T19:45:41.557Z,81.50
2023-08-14T19:48:09.585Z,81.40
2023-08-14T19:50:37.691Z,81.50
2023-08-14T19:53:05.913Z,81.60
2023-08-14T19:55:36.455Z,81.50
2023-08-14T19:58:04.614Z,81.60
2023-08-14T20:00:33.958Z,81.90
2023-08-14T20:03:02.017Z,82.80
2023-08-14T20:05:30.069Z,84.40
2023-08-14T20:07:58.201Z,86.10
2023-08-14T20:10:26.538Z,88.70
2023-08-14T20:12:54.493Z,89.80
2023-08-14T20:15:22.461Z,90.70
2023-08-14T20:17:51.918Z,91.00
2023-08-14T20:20:20.993Z,90.60
2023-08-14T20:22:48.987Z,90.60
2023-08-14T20:25:17.236Z,91.10
2023-08-14T20:27:45.385Z,90.60
2023-08-14T20:30:14.586Z,90.80
2023-08-14T20:32:42.581Z,91.80
2023-08-14T20:35:12.206Z,92.50
2023-08-14T20:37:40.174Z,93.20
2023-08-14T20:40:10.659Z,94.40
2023-08-14T20:42:38.695Z,95.40
2023-08-14T20:45:07.539Z,96.70
2023-08-14T20:47:36.079Z,97.50
2023-08-14T20:50:04.110Z,97.90
2023-08-14T20:52:33.469Z,97.90
2023-08-14T20:55:01.575Z,99.80
2023-08-14T20:57:29.551Z,98.80
2023-08-14T20:59:57.639Z,99.80
2023-08-14T21:02:25.679Z,99.90
2023-08-14T21:04:53.655Z,99.90
2023-08-14T21:07:21.772Z,99.90
2023-08-14T21:09:51.881Z,99.90
2023-08-14T21:12:19.846Z,99.90
2023-08-14T21:14:47.819Z,99.90
2023-08-14T21:17:15.853Z,99.90
2023-08-14T21:19:43.878Z,99.90
2023-08-14T21:22:12.815Z,99.90
2023-08-14T21:24:40.824Z,99.90
2023-08-14T21:27:10.776Z,99.90
2023-08-14T21:29:38.742Z,99.90
2023-08-14T21:32:07.257Z,99.90
2023-08-14T21:34:36.842Z,99.90
2023-08-14T21:37:05.358Z,99.90
2023-08-14T21:39:33.318Z,99.90
2023-08-14T21:42:01.297Z,99.90
2023-08-14T21:44:30.656Z,99.90
2023-08-14T21:46:58.630Z,99.90
2023-08-14T21:49:26.676Z,99.90
2023-08-14T21:51:54.686Z,99.90
2023-08-14T21:54:22.691Z,99.90
2023-08-14T21:56:50.745Z,99.90
2023-08-14T21:59:18.784Z,99.90
2023-08-14T22:01:48.818Z,99.90
2023-08-14T22:04:16.856Z,99.90
2023-08-14T22:06:44.918Z,99.90
2023-08-14T22:09:12.923Z,99.90
2023-08-14T22:11:41.297Z,99.90
2023-08-14T22:14:09.508Z,99.90
2023-08-14T22:16:37.623Z,99.90
2023-08-14T22:19:07.132Z,99.90
2023-08-14T22:21:35.132Z,99.90
2023-08-14T22:24:03.179Z,99.90
2023-08-14T22:26:31.171Z,99.90
2023-08-14T22:28:59.226Z,99.90
2023-08-14T22:31:27.354Z,99.90
2023-08-14T22:33:55.525Z,99.90
2023-08-14T22:36:24.911Z,99.90
2023-08-14T22:38:52.935Z,99.90
2023-08-14T22:41:20.901Z,99.90
2023-08-14T22:43:48.882Z,99.90
2023-08-14T22:46:16.923Z,99.90
2023-08-14T22:48:44.960Z,99.90
2023-08-14T22:51:13.715Z,99.90
2023-08-14T22:53:43.522Z,99.90
2023-08-14T22:56:11.473Z,99.90
2023-08-14T22:58:39.457Z,99.90
2023-08-14T23:01:07.497Z,99.90
2023-08-14T23:03:35.563Z,99.90
2023-08-14T23:06:03.562Z,99.90
2023-08-14T23:08:31.548Z,99.90
2023-08-14T23:11:00.943Z,99.90
2023-08-14T23:13:28.917Z,99.90
2023-08-14T23:15:56.944Z,99.90
2023-08-14T23:18:24.939Z,99.90
2023-08-14T23:20:52.922Z,99.90
2023-08-14T23:23:20.895Z,99.90
2023-08-14T23:25:49.132Z,99.90
2023-08-14T23:28:18.504Z,99.90
2023-08-14T23:30:46.480Z,99.90
2023-08-14T23:33:14.446Z,99.90
2023-08-14T23:35:42.471Z,99.90
2023-08-14T23:38:10.504Z,99.90
2023-08-14T23:40:38.466Z,99.90
2023-08-14T23:43:06.445Z,99.90
2023-08-14T23:45:35.822Z,99.90
2023-08-14T23:48:03.966Z,99.90
2023-08-14T23:50:32.023Z,99.90
2023-08-14T23:53:00.037Z,99.90
2023-08-14T23:55:28.026Z,99.90
2023-08-14T23:57:56.369Z,99.90
